Portada
METAR-TAF:

METAR-TAF

Aeroports :

Oskemen, Kazakhstan

latitud: 50-02-10N, longitud: 082-29-39E, altitud: 286 m

Observació

L'informe es va fer fa 33 minuts, a les 14:30 UTC
Vent 10 kt del Nord
Temperatura 24°C
Humitat 44%
Pressió 1023 hPa
Visibilitat 10 km o més

METAR: UASK 251430Z 36005MPS 9999 NSC 24/11 Q1023 R30/090060 NOSIG RMK QFE742/0989

Hora: 21:03 (15:03 UTC)

Pronòstic

L'informe es va fer fa 59 minuts, a les 14:04 UTC
Pronòstic vàlid del 25 a les 15 UTC al 25 a les 24 UTC
Vent 6 kt del Nord
Visibilitat 10 km o més
Temporalment
l' 25 a les 15 UTC al 25 a les 18 UTC
Vent 6 kt del Nord/Nord-Est amb ràfegues de 16 kt
Temporalment
l' 25 a les 18 UTC al 25 a les 24 UTC
Vent 4 kt amb direcció variable

TAF: UASK 251404Z 2515/2524 36003MPS 9999 NSC TEMPO 2515/2518 02003G08MPS TEMPO 2518/2524 VRB02MPS

Observacions i pronòstics meteorològics de més de 4000 aeroports (METAR i TAF).

Les estacions disponibles són els punts grocs i vermells al mapa.

Posi el ratolí al punt desitjat per veure el nom de l'estació.

Feu clic per veure les observacions i els pronòstics meteorològics.

Per canviar el mapa: feu clic els botons verds amb una creu de color negre per apropar; al botó verd amb un guió per allunyar la imatge; o en les fletxes verdes per a mapes adjacents.


METAR-TAF: